Junqueiro, Brazil
Current Conditions -  °F | °C
As of 6:00 PM on Sunday 21 Dec 2014 (Local Time) from SBMO Reporting Station
Few Clouds Few Clouds  
Wind Chill: 79°   Ceiling: Unl
Heat Index: 82°   Visibility: 6mi
Dew Point: 72°   Wind: 10mph
Humidity: 78%   Direction: 110°ESE
Pressure: 29.91"   Gusts: NA
Location:  9.93°S, 36.48°W
Report Text: SBMO 212100Z 11009KT 9999 FEW020 26/22 Q1013
Loading
Personal Weather Stations






























Interactive Weather Map New forecast layout! Learn more

10-Day Weather Forecast

Advertisements
Track Severe Weather on mobile